sensor_id;sensor_type;location;lat;lon;timestamp;temperature;humidity
5118;DHT22;2578;51.622;7.046;2022-10-16T00:01:27;14.10;99.90
5118;DHT22;2578;51.622;7.046;2022-10-16T00:03:54;14.10;99.90
5118;DHT22;2578;51.622;7.046;2022-10-16T00:06:22;14.10;99.90
5118;DHT22;2578;51.622;7.046;2022-10-16T00:08:48;14.10;99.90
5118;DHT22;2578;51.622;7.046;2022-10-16T00:11:22;14.10;99.90
5118;DHT22;2578;51.622;7.046;2022-10-16T00:13:50;14.20;99.90
5118;DHT22;2578;51.622;7.046;2022-10-16T00:16:17;14.10;99.90
5118;DHT22;2578;51.622;7.046;2022-10-16T00:18:43;14.10;99.90
5118;DHT22;2578;51.622;7.046;2022-10-16T00:21:12;14.10;99.90
5118;DHT22;2578;51.622;7.046;2022-10-16T00:23:38;14.10;99.90
5118;DHT22;2578;51.622;7.046;2022-10-16T00:26:10;14.10;99.90
5118;DHT22;2578;51.622;7.046;2022-10-16T00:28:37;14.00;99.90
5118;DHT22;2578;51.622;7.046;2022-10-16T00:31:08;14.10;99.90
5118;DHT22;2578;51.622;7.046;2022-10-16T00:33:35;14.10;99.90
5118;DHT22;2578;51.622;7.046;2022-10-16T00:36:02;14.00;99.90
5118;DHT22;2578;51.622;7.046;2022-10-16T00:38:28;14.00;99.90
5118;DHT22;2578;51.622;7.046;2022-10-16T00:40:54;14.10;99.90
5118;DHT22;2578;51.622;7.046;2022-10-16T00:46:29;14.10;99.90
5118;DHT22;2578;51.622;7.046;2022-10-16T00:49:13;14.10;99.90
5118;DHT22;2578;51.622;7.046;2022-10-16T00:51:45;14.10;99.90
5118;DHT22;2578;51.622;7.046;2022-10-16T00:54:16;14.10;99.90
5118;DHT22;2578;51.622;7.046;2022-10-16T00:56:43;14.10;99.90
5118;DHT22;2578;51.622;7.046;2022-10-16T00:59:20;14.00;99.90
5118;DHT22;2578;51.622;7.046;2022-10-16T01:01:46;14.10;99.90
5118;DHT22;2578;51.622;7.046;2022-10-16T01:04:12;14.00;99.90
5118;DHT22;2578;51.622;7.046;2022-10-16T01:09:30;14.00;99.90
5118;DHT22;2578;51.622;7.046;2022-10-16T01:12:13;14.00;99.90
5118;DHT22;2578;51.622;7.046;2022-10-16T01:14:54;14.00;99.90
5118;DHT22;2578;51.622;7.046;2022-10-16T01:17:24;13.90;99.90
5118;DHT22;2578;51.622;7.046;2022-10-16T01:22:26;13.90;99.90
5118;DHT22;2578;51.622;7.046;2022-10-16T01:25:00;13.90;99.90
5118;DHT22;2578;51.622;7.046;2022-10-16T01:27:30;14.00;99.90
5118;DHT22;2578;51.622;7.046;2022-10-16T01:30:10;13.80;99.90
5118;DHT22;2578;51.622;7.046;2022-10-16T01:32:49;13.80;99.90
5118;DHT22;2578;51.622;7.046;2022-10-16T01:38:07;13.80;99.90
5118;DHT22;2578;51.622;7.046;2022-10-16T01:40:34;13.70;99.90
5118;DHT22;2578;51.622;7.046;2022-10-16T01:43:13;13.70;99.90
5118;DHT22;2578;51.622;7.046;2022-10-16T01:45:41;13.70;99.90
5118;DHT22;2578;51.622;7.046;2022-10-16T01:48:07;13.70;99.90
5118;DHT22;2578;51.622;7.046;2022-10-16T01:50:38;13.70;99.90
5118;DHT22;2578;51.622;7.046;2022-10-16T01:53:06;13.70;99.90
5118;DHT22;2578;51.622;7.046;2022-10-16T01:55:37;13.70;99.90
5118;DHT22;2578;51.622;7.046;2022-10-16T01:58:06;13.70;99.90
5118;DHT22;2578;51.622;7.046;2022-10-16T02:00:34;13.70;99.90
5118;DHT22;2578;51.622;7.046;2022-10-16T02:03:02;13.70;99.90
5118;DHT22;2578;51.622;7.046;2022-10-16T02:05:41;13.70;99.90
5118;DHT22;2578;51.622;7.046;2022-10-16T02:08:08;13.70;99.90
5118;DHT22;2578;51.622;7.046;2022-10-16T02:10:35;13.70;99.90
5118;DHT22;2578;51.622;7.046;2022-10-16T02:13:17;13.70;99.90
5118;DHT22;2578;51.622;7.046;2022-10-16T02:15:44;13.60;99.90
5118;DHT22;2578;51.622;7.046;2022-10-16T02:18:10;13.60;99.90
5118;DHT22;2578;51.622;7.046;2022-10-16T02:23:32;13.60;99.90
5118;DHT22;2578;51.622;7.046;2022-10-16T02:25:59;12.30;99.90
5118;DHT22;2578;51.622;7.046;2022-10-16T02:28:38;13.70;99.90
5118;DHT22;2578;51.622;7.046;2022-10-16T02:31:08;13.70;99.90
5118;DHT22;2578;51.622;7.046;2022-10-16T02:33:37;13.70;99.90
5118;DHT22;2578;51.622;7.046;2022-10-16T02:36:04;13.60;99.90
5118;DHT22;2578;51.622;7.046;2022-10-16T02:38:30;13.60;99.90
5118;DHT22;2578;51.622;7.046;2022-10-16T02:40:56;13.60;99.90
5118;DHT22;2578;51.622;7.046;2022-10-16T02:43:22;13.50;99.90
5118;DHT22;2578;51.622;7.046;2022-10-16T02:45:47;13.60;99.90
5118;DHT22;2578;51.622;7.046;2022-10-16T02:48:13;13.60;99.90
5118;DHT22;2578;51.622;7.046;2022-10-16T02:50:39;13.60;99.90
5118;DHT22;2578;51.622;7.046;2022-10-16T02:53:04;13.60;99.90
5118;DHT22;2578;51.622;7.046;2022-10-16T02:55:30;13.60;99.90
5118;DHT22;2578;51.622;7.046;2022-10-16T02:57:55;13.60;99.90
5118;DHT22;2578;51.622;7.046;2022-10-16T03:00:21;13.60;99.90
5118;DHT22;2578;51.622;7.046;2022-10-16T03:02:47;13.60;99.90
5118;DHT22;2578;51.622;7.046;2022-10-16T03:05:13;13.60;99.90
5118;DHT22;2578;51.622;7.046;2022-10-16T03:07:39;13.60;99.90
5118;DHT22;2578;51.622;7.046;2022-10-16T03:10:05;13.60;99.90
5118;DHT22;2578;51.622;7.046;2022-10-16T03:12:31;13.60;99.90
5118;DHT22;2578;51.622;7.046;2022-10-16T03:14:56;13.60;99.90
5118;DHT22;2578;51.622;7.046;2022-10-16T03:17:23;13.60;99.90
5118;DHT22;2578;51.622;7.046;2022-10-16T03:19:49;13.60;99.90
5118;DHT22;2578;51.622;7.046;2022-10-16T03:22:14;13.70;99.90
5118;DHT22;2578;51.622;7.046;2022-10-16T03:24:40;13.60;99.90
5118;DHT22;2578;51.622;7.046;2022-10-16T03:27:06;13.60;99.90
5118;DHT22;2578;51.622;7.046;2022-10-16T03:29:32;13.60;99.90
5118;DHT22;2578;51.622;7.046;2022-10-16T03:31:59;13.60;99.90
5118;DHT22;2578;51.622;7.046;2022-10-16T03:34:24;13.60;99.90
5118;DHT22;2578;51.622;7.046;2022-10-16T03:36:51;13.60;99.90
5118;DHT22;2578;51.622;7.046;2022-10-16T03:39:16;13.60;99.90
5118;DHT22;2578;51.622;7.046;2022-10-16T03:41:42;14.50;99.90
5118;DHT22;2578;51.622;7.046;2022-10-16T03:44:08;13.60;99.90
5118;DHT22;2578;51.622;7.046;2022-10-16T03:46:33;13.60;99.90
5118;DHT22;2578;51.622;7.046;2022-10-16T03:48:59;13.60;99.90
5118;DHT22;2578;51.622;7.046;2022-10-16T03:51:24;13.60;99.90
5118;DHT22;2578;51.622;7.046;2022-10-16T03:53:50;13.60;99.90
5118;DHT22;2578;51.622;7.046;2022-10-16T03:56:16;13.60;99.90
5118;DHT22;2578;51.622;7.046;2022-10-16T03:58:42;13.50;99.90
5118;DHT22;2578;51.622;7.046;2022-10-16T04:01:08;13.70;99.90
5118;DHT22;2578;51.622;7.046;2022-10-16T04:03:33;13.50;99.90
5118;DHT22;2578;51.622;7.046;2022-10-16T04:05:59;13.50;99.90
5118;DHT22;2578;51.622;7.046;2022-10-16T04:08:25;13.50;99.90
5118;DHT22;2578;51.622;7.046;2022-10-16T04:10:50;13.60;99.90
5118;DHT22;2578;51.622;7.046;2022-10-16T04:13:16;13.60;99.90
5118;DHT22;2578;51.622;7.046;2022-10-16T04:15:42;13.70;99.90
5118;DHT22;2578;51.622;7.046;2022-10-16T04:18:08;13.80;99.90
5118;DHT22;2578;51.622;7.046;2022-10-16T04:20:34;13.80;99.90
5118;DHT22;2578;51.622;7.046;2022-10-16T04:23:00;13.90;99.90
5118;DHT22;2578;51.622;7.046;2022-10-16T04:25:25;13.90;99.90
5118;DHT22;2578;51.622;7.046;2022-10-16T04:27:53;13.80;99.90
5118;DHT22;2578;51.622;7.046;2022-10-16T04:30:19;13.80;99.90
5118;DHT22;2578;51.622;7.046;2022-10-16T04:32:48;13.90;99.90
5118;DHT22;2578;51.622;7.046;2022-10-16T04:35:15;13.80;99.90
5118;DHT22;2578;51.622;7.046;2022-10-16T04:37:41;13.80;99.90
5118;DHT22;2578;51.622;7.046;2022-10-16T04:40:07;13.80;99.90
5118;DHT22;2578;51.622;7.046;2022-10-16T04:42:32;13.80;99.90
5118;DHT22;2578;51.622;7.046;2022-10-16T04:44:58;13.80;99.90
5118;DHT22;2578;51.622;7.046;2022-10-16T04:47:24;13.80;99.90
5118;DHT22;2578;51.622;7.046;2022-10-16T04:49:49;13.80;99.90
5118;DHT22;2578;51.622;7.046;2022-10-16T04:52:15;13.70;99.90
5118;DHT22;2578;51.622;7.046;2022-10-16T04:54:41;13.70;99.90
5118;DHT22;2578;51.622;7.046;2022-10-16T04:57:07;13.70;99.90
5118;DHT22;2578;51.622;7.046;2022-10-16T04:59:32;13.70;99.90
5118;DHT22;2578;51.622;7.046;2022-10-16T05:01:58;13.70;99.90
5118;DHT22;2578;51.622;7.046;2022-10-16T05:04:23;13.70;99.90
5118;DHT22;2578;51.622;7.046;2022-10-16T05:06:49;13.70;99.90
5118;DHT22;2578;51.622;7.046;2022-10-16T05:09:15;13.70;99.90
5118;DHT22;2578;51.622;7.046;2022-10-16T05:11:40;13.70;99.90
5118;DHT22;2578;51.622;7.046;2022-10-16T05:16:32;13.70;99.90
5118;DHT22;2578;51.622;7.046;2022-10-16T05:18:58;13.70;99.90
5118;DHT22;2578;51.622;7.046;2022-10-16T05:21:23;14.40;99.90
5118;DHT22;2578;51.622;7.046;2022-10-16T05:23:49;13.70;99.90
5118;DHT22;2578;51.622;7.046;2022-10-16T05:26:14;13.70;99.90
5118;DHT22;2578;51.622;7.046;2022-10-16T05:28:40;13.70;99.90
5118;DHT22;2578;51.622;7.046;2022-10-16T05:31:07;13.70;99.90
5118;DHT22;2578;51.622;7.046;2022-10-16T05:33:33;13.80;99.90
5118;DHT22;2578;51.622;7.046;2022-10-16T05:36:07;13.70;99.90
5118;DHT22;2578;51.622;7.046;2022-10-16T05:38:36;13.70;99.90
5118;DHT22;2578;51.622;7.046;2022-10-16T05:41:03;13.70;99.90
5118;DHT22;2578;51.622;7.046;2022-10-16T05:43:30;13.70;99.90
5118;DHT22;2578;51.622;7.046;2022-10-16T05:45:57;13.60;99.90
5118;DHT22;2578;51.622;7.046;2022-10-16T05:48:24;13.60;99.90
5118;DHT22;2578;51.622;7.046;2022-10-16T05:51:04;13.60;99.90
5118;DHT22;2578;51.622;7.046;2022-10-16T05:53:33;13.60;99.90
5118;DHT22;2578;51.622;7.046;2022-10-16T05:55:59;13.60;99.90
5118;DHT22;2578;51.622;7.046;2022-10-16T05:58:28;13.60;99.90
5118;DHT22;2578;51.622;7.046;2022-10-16T06:00:55;13.60;99.90
5118;DHT22;2578;51.622;7.046;2022-10-16T06:03:21;13.70;99.90
5118;DHT22;2578;51.622;7.046;2022-10-16T06:05:47;13.60;99.90
5118;DHT22;2578;51.622;7.046;2022-10-16T06:08:12;13.60;99.90
5118;DHT22;2578;51.622;7.046;2022-10-16T06:10:38;13.60;99.90
5118;DHT22;2578;51.622;7.046;2022-10-16T06:13:03;13.70;99.90
5118;DHT22;2578;51.622;7.046;2022-10-16T06:15:29;13.50;99.90
5118;DHT22;2578;51.622;7.046;2022-10-16T06:17:55;13.50;99.90
5118;DHT22;2578;51.622;7.046;2022-10-16T06:20:23;14.70;99.90
5118;DHT22;2578;51.622;7.046;2022-10-16T06:22:48;13.50;99.90
5118;DHT22;2578;51.622;7.046;2022-10-16T06:25:14;13.60;99.90
5118;DHT22;2578;51.622;7.046;2022-10-16T06:27:40;13.70;99.90
5118;DHT22;2578;51.622;7.046;2022-10-16T06:30:06;13.70;99.90
5118;DHT22;2578;51.622;7.046;2022-10-16T06:32:33;13.80;99.90
5118;DHT22;2578;51.622;7.046;2022-10-16T06:34:58;13.90;99.90
5118;DHT22;2578;51.622;7.046;2022-10-16T06:37:24;13.90;99.90
5118;DHT22;2578;51.622;7.046;2022-10-16T06:39:50;14.00;99.90
5118;DHT22;2578;51.622;7.046;2022-10-16T06:42:17;14.00;99.90
5118;DHT22;2578;51.622;7.046;2022-10-16T06:44:43;14.00;99.90
5118;DHT22;2578;51.622;7.046;2022-10-16T06:47:09;14.00;99.90
5118;DHT22;2578;51.622;7.046;2022-10-16T06:49:34;14.10;99.90
5118;DHT22;2578;51.622;7.046;2022-10-16T06:52:00;14.00;99.90
5118;DHT22;2578;51.622;7.046;2022-10-16T06:54:27;14.00;99.90
5118;DHT22;2578;51.622;7.046;2022-10-16T06:56:52;14.00;99.90
5118;DHT22;2578;51.622;7.046;2022-10-16T06:59:23;14.00;99.90
5118;DHT22;2578;51.622;7.046;2022-10-16T07:01:48;14.10;99.90
5118;DHT22;2578;51.622;7.046;2022-10-16T07:04:14;14.00;99.90
5118;DHT22;2578;51.622;7.046;2022-10-16T07:06:40;14.00;99.90
5118;DHT22;2578;51.622;7.046;2022-10-16T07:09:11;13.90;99.90
5118;DHT22;2578;51.622;7.046;2022-10-16T07:11:39;14.00;99.90
5118;DHT22;2578;51.622;7.046;2022-10-16T07:14:10;14.00;99.90
5118;DHT22;2578;51.622;7.046;2022-10-16T07:16:37;14.00;99.90
5118;DHT22;2578;51.622;7.046;2022-10-16T07:19:03;14.00;99.90
5118;DHT22;2578;51.622;7.046;2022-10-16T07:21:31;14.00;99.90
5118;DHT22;2578;51.622;7.046;2022-10-16T07:24:01;13.90;99.90
5118;DHT22;2578;51.622;7.046;2022-10-16T07:26:28;13.90;99.90
5118;DHT22;2578;51.622;7.046;2022-10-16T07:28:55;14.30;99.90
5118;DHT22;2578;51.622;7.046;2022-10-16T07:31:22;14.50;99.90
5118;DHT22;2578;51.622;7.046;2022-10-16T07:33:49;14.90;99.90
5118;DHT22;2578;51.622;7.046;2022-10-16T07:36:16;15.30;99.90
5118;DHT22;2578;51.622;7.046;2022-10-16T07:38:43;15.70;99.90
5118;DHT22;2578;51.622;7.046;2022-10-16T07:41:14;16.00;99.90
5118;DHT22;2578;51.622;7.046;2022-10-16T07:43:40;16.30;99.90
5118;DHT22;2578;51.622;7.046;2022-10-16T07:46:06;16.60;99.90
5118;DHT22;2578;51.622;7.046;2022-10-16T07:48:33;16.70;99.90
5118;DHT22;2578;51.622;7.046;2022-10-16T07:51:04;16.80;99.90
5118;DHT22;2578;51.622;7.046;2022-10-16T07:53:30;17.00;99.90
5118;DHT22;2578;51.622;7.046;2022-10-16T07:56:00;17.00;99.90
5118;DHT22;2578;51.622;7.046;2022-10-16T07:58:27;17.00;99.90
5118;DHT22;2578;51.622;7.046;2022-10-16T08:00:53;17.00;99.90
5118;DHT22;2578;51.622;7.046;2022-10-16T08:03:19;17.10;99.90
5118;DHT22;2578;51.622;7.046;2022-10-16T08:05:44;17.20;99.90
5118;DHT22;2578;51.622;7.046;2022-10-16T08:08:14;17.40;99.90
5118;DHT22;2578;51.622;7.046;2022-10-16T08:10:40;17.50;99.90
5118;DHT22;2578;51.622;7.046;2022-10-16T08:13:06;17.90;99.90
5118;DHT22;2578;51.622;7.046;2022-10-16T08:15:31;18.00;99.90
5118;DHT22;2578;51.622;7.046;2022-10-16T08:18:02;18.10;99.90
5118;DHT22;2578;51.622;7.046;2022-10-16T08:20:29;18.10;99.90
5118;DHT22;2578;51.622;7.046;2022-10-16T08:22:55;18.10;99.90
5118;DHT22;2578;51.622;7.046;2022-10-16T08:25:22;18.20;99.90
5118;DHT22;2578;51.622;7.046;2022-10-16T08:27:48;18.10;99.90
5118;DHT22;2578;51.622;7.046;2022-10-16T08:30:15;18.10;99.90
5118;DHT22;2578;51.622;7.046;2022-10-16T08:32:41;18.30;99.90
5118;DHT22;2578;51.622;7.046;2022-10-16T08:35:08;17.70;99.90
5118;DHT22;2578;51.622;7.046;2022-10-16T08:37:35;17.80;99.90
5118;DHT22;2578;51.622;7.046;2022-10-16T08:40:00;17.70;99.90
5118;DHT22;2578;51.622;7.046;2022-10-16T08:50:45;17.60;99.90
5118;DHT22;2578;51.622;7.046;2022-10-16T08:53:27;17.60;99.90
5118;DHT22;2578;51.622;7.046;2022-10-16T08:55:54;17.20;99.90
5118;DHT22;2578;51.622;7.046;2022-10-16T08:58:27;17.30;99.90
5118;DHT22;2578;51.622;7.046;2022-10-16T09:01:01;17.50;99.90
5118;DHT22;2578;51.622;7.046;2022-10-16T09:09:21;18.90;99.90
5118;DHT22;2578;51.622;7.046;2022-10-16T09:16:57;19.30;99.90
5118;DHT22;2578;51.622;7.046;2022-10-16T09:21:54;19.30;99.90
5118;DHT22;2578;51.622;7.046;2022-10-16T09:24:26;19.20;99.90
5118;DHT22;2578;51.622;7.046;2022-10-16T09:26:52;19.20;99.90
5118;DHT22;2578;51.622;7.046;2022-10-16T09:29:19;19.00;99.90
5118;DHT22;2578;51.622;7.046;2022-10-16T09:31:46;19.10;99.90
5118;DHT22;2578;51.622;7.046;2022-10-16T09:34:27;19.60;99.90
5118;DHT22;2578;51.622;7.046;2022-10-16T09:36:57;19.60;99.90
5118;DHT22;2578;51.622;7.046;2022-10-16T09:39:24;19.20;99.90
5118;DHT22;2578;51.622;7.046;2022-10-16T09:41:50;19.40;99.90
5118;DHT22;2578;51.622;7.046;2022-10-16T09:44:21;20.20;99.90
5118;DHT22;2578;51.622;7.046;2022-10-16T09:46:48;20.40;99.90
5118;DHT22;2578;51.622;7.046;2022-10-16T09:49:25;20.60;99.90
5118;DHT22;2578;51.622;7.046;2022-10-16T09:52:02;20.50;99.90
5118;DHT22;2578;51.622;7.046;2022-10-16T09:54:28;19.60;99.90
5118;DHT22;2578;51.622;7.046;2022-10-16T09:57:07;19.30;99.90
5118;DHT22;2578;51.622;7.046;2022-10-16T09:59:33;18.80;99.90
5118;DHT22;2578;51.622;7.046;2022-10-16T10:02:04;19.10;99.90
5118;DHT22;2578;51.622;7.046;2022-10-16T10:04:42;18.60;99.90
5118;DHT22;2578;51.622;7.046;2022-10-16T10:07:18;18.70;99.90
5118;DHT22;2578;51.622;7.046;2022-10-16T10:09:48;19.00;99.90
5118;DHT22;2578;51.622;7.046;2022-10-16T10:12:25;19.50;99.90
5118;DHT22;2578;51.622;7.046;2022-10-16T10:14:53;18.10;99.90
5118;DHT22;2578;51.622;7.046;2022-10-16T10:17:22;18.10;99.90
5118;DHT22;2578;51.622;7.046;2022-10-16T10:19:55;17.70;99.90
5118;DHT22;2578;51.622;7.046;2022-10-16T10:22:32;17.30;99.90
5118;DHT22;2578;51.622;7.046;2022-10-16T10:30:25;17.20;99.90
5118;DHT22;2578;51.622;7.046;2022-10-16T11:06:21;20.80;99.90
5118;DHT22;2578;51.622;7.046;2022-10-16T11:11:43;21.40;63.70
5118;DHT22;2578;51.622;7.046;2022-10-16T11:14:19;20.50;74.20
5118;DHT22;2578;51.622;7.046;2022-10-16T11:16:56;20.40;72.00
5118;DHT22;2578;51.622;7.046;2022-10-16T11:22:16;19.50;99.90
5118;DHT22;2578;51.622;7.046;2022-10-16T11:29:54;19.20;99.90
5118;DHT22;2578;51.622;7.046;2022-10-16T11:32:26;19.60;99.90
5118;DHT22;2578;51.622;7.046;2022-10-16T11:34:59;20.70;97.40
5118;DHT22;2578;51.622;7.046;2022-10-16T11:37:33;20.50;97.00
5118;DHT22;2578;51.622;7.046;2022-10-16T11:40:30;20.20;99.90
5118;DHT22;2578;51.622;7.046;2022-10-16T11:43:06;20.30;99.90
5118;DHT22;2578;51.622;7.046;2022-10-16T11:45:45;20.60;99.90
5118;DHT22;2578;51.622;7.046;2022-10-16T11:48:36;21.40;94.30
5118;DHT22;2578;51.622;7.046;2022-10-16T11:53:59;22.40;44.00
5118;DHT22;2578;51.622;7.046;2022-10-16T11:56:27;22.60;20.60
5118;DHT22;2578;51.622;7.046;2022-10-16T12:01:46;21.80;14.10
5118;DHT22;2578;51.622;7.046;2022-10-16T12:07:05;22.00;29.10
5118;DHT22;2578;51.622;7.046;2022-10-16T12:09:33;22.90;19.60
5118;DHT22;2578;51.622;7.046;2022-10-16T12:12:00;23.60;6.20
5118;DHT22;2578;51.622;7.046;2022-10-16T12:14:42;23.70;3.40
5118;DHT22;2578;51.622;7.046;2022-10-16T12:20:00;23.50;3.50
5118;DHT22;2578;51.622;7.046;2022-10-16T12:22:29;22.70;7.70
5118;DHT22;2578;51.622;7.046;2022-10-16T12:24:56;22.50;9.00
5118;DHT22;2578;51.622;7.046;2022-10-16T12:27:28;22.60;7.00
5118;DHT22;2578;51.622;7.046;2022-10-16T12:30:00;22.40;9.60
5118;DHT22;2578;51.622;7.046;2022-10-16T12:32:34;21.90;13.80
5118;DHT22;2578;51.622;7.046;2022-10-16T12:35:02;21.70;29.00
5118;DHT22;2578;51.622;7.046;2022-10-16T12:37:34;21.80;27.10
5118;DHT22;2578;51.622;7.046;2022-10-16T12:40:25;22.00;28.00
5118;DHT22;2578;51.622;7.046;2022-10-16T12:42:52;22.00;18.70
5118;DHT22;2578;51.622;7.046;2022-10-16T12:45:31;20.10;94.60
5118;DHT22;2578;51.622;7.046;2022-10-16T12:47:58;20.20;98.50
5118;DHT22;2578;51.622;7.046;2022-10-16T12:52:56;21.50;75.00
5118;DHT22;2578;51.622;7.046;2022-10-16T12:55:22;22.70;26.80
5118;DHT22;2578;51.622;7.046;2022-10-16T13:00:54;22.80;14.90
5118;DHT22;2578;51.622;7.046;2022-10-16T13:13:54;22.30;16.30
5118;DHT22;2578;51.622;7.046;2022-10-16T13:30:29;22.40;26.20
5118;DHT22;2578;51.622;7.046;2022-10-16T13:35:35;22.50;17.50
5118;DHT22;2578;51.622;7.046;2022-10-16T13:38:11;22.50;13.60
5118;DHT22;2578;51.622;7.046;2022-10-16T13:40:55;22.10;7.90
5118;DHT22;2578;51.622;7.046;2022-10-16T13:45:58;22.00;18.80
5118;DHT22;2578;51.622;7.046;2022-10-16T13:48:24;21.30;37.10
5118;DHT22;2578;51.622;7.046;2022-10-16T13:51:00;20.50;73.60
5118;DHT22;2578;51.622;7.046;2022-10-16T13:53:26;20.10;96.30
5118;DHT22;2578;51.622;7.046;2022-10-16T13:55:52;19.90;99.90
5118;DHT22;2578;51.622;7.046;2022-10-16T13:58:18;19.80;99.90
5118;DHT22;2578;51.622;7.046;2022-10-16T14:01:17;19.90;99.90
5118;DHT22;2578;51.622;7.046;2022-10-16T14:03:43;19.90;99.90
5118;DHT22;2578;51.622;7.046;2022-10-16T14:06:14;20.10;99.90
5118;DHT22;2578;51.622;7.046;2022-10-16T14:08:47;20.20;99.90
5118;DHT22;2578;51.622;7.046;2022-10-16T14:11:21;20.40;96.10
5118;DHT22;2578;51.622;7.046;2022-10-16T14:13:48;20.80;71.90
5118;DHT22;2578;51.622;7.046;2022-10-16T14:16:27;22.00;48.50
5118;DHT22;2578;51.622;7.046;2022-10-16T14:18:59;22.90;20.20
5118;DHT22;2578;51.622;7.046;2022-10-16T14:21:25;23.40;11.50
5118;DHT22;2578;51.622;7.046;2022-10-16T14:23:52;23.60;5.80
5118;DHT22;2578;51.622;7.046;2022-10-16T14:26:20;23.10;3.00
5118;DHT22;2578;51.622;7.046;2022-10-16T14:28:49;22.70;4.10
5118;DHT22;2578;51.622;7.046;2022-10-16T14:31:28;22.10;10.90
5118;DHT22;2578;51.622;7.046;2022-10-16T14:33:54;21.90;14.60
5118;DHT22;2578;51.622;7.046;2022-10-16T14:36:21;21.60;14.40
5118;DHT22;2578;51.622;7.046;2022-10-16T14:41:21;20.70;38.30
5118;DHT22;2578;51.622;7.046;2022-10-16T14:43:51;20.50;63.00
5118;DHT22;2578;51.622;7.046;2022-10-16T14:46:27;21.80;90.70
5118;DHT22;2578;51.622;7.046;2022-10-16T14:49:02;20.50;95.20
5118;DHT22;2578;51.622;7.046;2022-10-16T14:53:55;20.50;87.70
5118;DHT22;2578;51.622;7.046;2022-10-16T14:56:26;20.50;99.90
5118;DHT22;2578;51.622;7.046;2022-10-16T14:58:55;20.50;99.90
5118;DHT22;2578;51.622;7.046;2022-10-16T15:01:21;20.50;99.90
5118;DHT22;2578;51.622;7.046;2022-10-16T15:03:47;20.30;99.90
5118;DHT22;2578;51.622;7.046;2022-10-16T15:06:14;20.20;99.90
5118;DHT22;2578;51.622;7.046;2022-10-16T15:08:40;20.10;99.90
5118;DHT22;2578;51.622;7.046;2022-10-16T15:11:15;20.00;99.90
5118;DHT22;2578;51.622;7.046;2022-10-16T15:13:41;19.90;99.90
5118;DHT22;2578;51.622;7.046;2022-10-16T15:16:15;19.80;99.90
5118;DHT22;2578;51.622;7.046;2022-10-16T15:18:42;19.40;99.90
5118;DHT22;2578;51.622;7.046;2022-10-16T15:21:08;19.40;99.90
5118;DHT22;2578;51.622;7.046;2022-10-16T15:23:36;18.90;99.90
5118;DHT22;2578;51.622;7.046;2022-10-16T15:26:02;18.90;99.90
5118;DHT22;2578;51.622;7.046;2022-10-16T15:28:28;19.00;99.90
5118;DHT22;2578;51.622;7.046;2022-10-16T15:30:55;19.00;99.90
5118;DHT22;2578;51.622;7.046;2022-10-16T15:33:24;18.90;99.90
5118;DHT22;2578;51.622;7.046;2022-10-16T15:35:51;18.80;99.90
5118;DHT22;2578;51.622;7.046;2022-10-16T15:38:18;18.70;99.90
5118;DHT22;2578;51.622;7.046;2022-10-16T15:40:46;18.70;99.90
5118;DHT22;2578;51.622;7.046;2022-10-16T15:43:11;18.80;99.90
5118;DHT22;2578;51.622;7.046;2022-10-16T15:45:37;18.80;99.90
5118;DHT22;2578;51.622;7.046;2022-10-16T15:48:03;18.80;99.90
5118;DHT22;2578;51.622;7.046;2022-10-16T15:50:30;18.70;99.90
5118;DHT22;2578;51.622;7.046;2022-10-16T15:52:57;18.80;99.90
5118;DHT22;2578;51.622;7.046;2022-10-16T15:55:22;18.80;99.90
5118;DHT22;2578;51.622;7.046;2022-10-16T15:57:48;18.80;99.90
5118;DHT22;2578;51.622;7.046;2022-10-16T16:00:18;18.70;99.90
5118;DHT22;2578;51.622;7.046;2022-10-16T16:02:52;18.60;99.90
5118;DHT22;2578;51.622;7.046;2022-10-16T16:05:19;18.40;99.90
5118;DHT22;2578;51.622;7.046;2022-10-16T16:07:45;18.30;99.90
5118;DHT22;2578;51.622;7.046;2022-10-16T16:10:11;18.20;99.90
5118;DHT22;2578;51.622;7.046;2022-10-16T16:12:37;18.00;99.90
5118;DHT22;2578;51.622;7.046;2022-10-16T16:15:07;17.80;99.90
5118;DHT22;2578;51.622;7.046;2022-10-16T16:17:34;17.70;99.90
5118;DHT22;2578;51.622;7.046;2022-10-16T16:20:00;17.60;99.90
5118;DHT22;2578;51.622;7.046;2022-10-16T16:22:27;17.50;99.90
5118;DHT22;2578;51.622;7.046;2022-10-16T16:24:53;17.30;99.90
5118;DHT22;2578;51.622;7.046;2022-10-16T16:27:19;17.10;99.90
5118;DHT22;2578;51.622;7.046;2022-10-16T16:29:45;17.20;99.90
5118;DHT22;2578;51.622;7.046;2022-10-16T16:32:11;17.10;99.90
5118;DHT22;2578;51.622;7.046;2022-10-16T16:34:37;16.80;99.90
5118;DHT22;2578;51.622;7.046;2022-10-16T16:37:02;16.80;99.90
5118;DHT22;2578;51.622;7.046;2022-10-16T16:39:28;16.70;99.90
5118;DHT22;2578;51.622;7.046;2022-10-16T16:41:56;16.50;99.90
5118;DHT22;2578;51.622;7.046;2022-10-16T16:44:24;16.40;99.90
5118;DHT22;2578;51.622;7.046;2022-10-16T16:46:50;16.40;99.90
5118;DHT22;2578;51.622;7.046;2022-10-16T16:49:15;17.10;99.90
5118;DHT22;2578;51.622;7.046;2022-10-16T16:51:41;16.20;99.90
5118;DHT22;2578;51.622;7.046;2022-10-16T16:54:08;15.90;99.90
5118;DHT22;2578;51.622;7.046;2022-10-16T16:56:34;15.80;99.90
5118;DHT22;2578;51.622;7.046;2022-10-16T17:01:27;15.70;99.90
5118;DHT22;2578;51.622;7.046;2022-10-16T17:03:55;15.50;99.90
5118;DHT22;2578;51.622;7.046;2022-10-16T17:06:24;15.50;99.90
5118;DHT22;2578;51.622;7.046;2022-10-16T17:08:50;15.50;99.90
5118;DHT22;2578;51.622;7.046;2022-10-16T17:11:22;15.40;99.90
5118;DHT22;2578;51.622;7.046;2022-10-16T17:13:48;15.20;99.90
5118;DHT22;2578;51.622;7.046;2022-10-16T17:16:15;15.10;99.90
5118;DHT22;2578;51.622;7.046;2022-10-16T17:18:41;15.00;99.90
5118;DHT22;2578;51.622;7.046;2022-10-16T17:21:09;15.00;99.90
5118;DHT22;2578;51.622;7.046;2022-10-16T17:23:35;15.00;99.90
5118;DHT22;2578;51.622;7.046;2022-10-16T17:26:06;15.00;99.90
5118;DHT22;2578;51.622;7.046;2022-10-16T17:28:32;15.00;99.90
5118;DHT22;2578;51.622;7.046;2022-10-16T17:31:12;15.00;99.90
5118;DHT22;2578;51.622;7.046;2022-10-16T17:33:39;14.90;99.90
5118;DHT22;2578;51.622;7.046;2022-10-16T17:36:05;14.80;99.90
5118;DHT22;2578;51.622;7.046;2022-10-16T17:38:31;14.80;99.90
5118;DHT22;2578;51.622;7.046;2022-10-16T17:40:57;14.70;99.90
5118;DHT22;2578;51.622;7.046;2022-10-16T17:43:23;14.70;99.90
5118;DHT22;2578;51.622;7.046;2022-10-16T17:45:48;14.60;99.90
5118;DHT22;2578;51.622;7.046;2022-10-16T17:48:14;14.60;99.90
5118;DHT22;2578;51.622;7.046;2022-10-16T17:50:40;14.60;99.90
5118;DHT22;2578;51.622;7.046;2022-10-16T17:53:06;14.50;99.90
5118;DHT22;2578;51.622;7.046;2022-10-16T17:55:37;14.50;99.90
5118;DHT22;2578;51.622;7.046;2022-10-16T17:58:03;14.70;99.90
5118;DHT22;2578;51.622;7.046;2022-10-16T18:00:29;14.70;99.90
5118;DHT22;2578;51.622;7.046;2022-10-16T18:02:54;14.70;99.90
5118;DHT22;2578;51.622;7.046;2022-10-16T18:05:20;14.70;99.90
5118;DHT22;2578;51.622;7.046;2022-10-16T18:07:46;14.80;99.90
5118;DHT22;2578;51.622;7.046;2022-10-16T18:12:38;14.80;99.90
5118;DHT22;2578;51.622;7.046;2022-10-16T18:15:04;14.80;99.90
5118;DHT22;2578;51.622;7.046;2022-10-16T18:17:30;14.80;99.90
5118;DHT22;2578;51.622;7.046;2022-10-16T18:19:56;14.70;99.90
5118;DHT22;2578;51.622;7.046;2022-10-16T18:22:21;14.60;99.90
5118;DHT22;2578;51.622;7.046;2022-10-16T18:24:48;14.50;99.90
5118;DHT22;2578;51.622;7.046;2022-10-16T18:27:13;14.50;99.90
5118;DHT22;2578;51.622;7.046;2022-10-16T18:29:39;14.40;99.90
5118;DHT22;2578;51.622;7.046;2022-10-16T18:32:07;14.40;99.90
5118;DHT22;2578;51.622;7.046;2022-10-16T18:34:33;14.40;99.90